Pamlico — WX6900 — position and weather

sailwx.info

Track history (hours):
 
Tides and Currents Weather Stations Pressure Air Temp Water Temp Dewpoint Dewpoint Depression Visibility Wind Speed Wind Dir Waves Ship Positions

Pamlico

Owner: PCS Phosphate, AURORA, NC. More information available from US FCC via Universal Licensing System and Coast Guard Vessel Documentation Center.

Last reported at 2018-May-19 03:54 UTC. Time now 2018-May-23 18:37 UTC.
Position N 34°57' W 076°41'.

Length 30 m; draft 2 m.

Type: Tug. MMSI: 367361220.

Date/timePositionNaut miles runAvg speedWind from/ knotsBaromVisibWave heightAir tempDewpointWater temp
2018-May-19 03:54N 34°57' W 076°41'3 7.0
2018-May-19 03:30N 34°55' W 076°40'4 7.5
2018-May-19 03:00N 34°51' W 076°41'4 8.3
2018-May-19 02:30N 34°47' W 076°41'4 7.8
2018-May-19 02:00N 34°43' W 076°42'0 0.2
2018-May-19 01:30N 34°43' W 076°42'0 0.0
2018-May-19 01:00N 34°43' W 076°42'2 4.6
2018-May-19 00:31N 34°45' W 076°40'1 2.0
2018-May-19 00:00N 34°46' W 076°41'3 5.7
2018-May-18 23:30N 34°49' W 076°41'3 6.4
2018-May-18 23:00N 34°52' W 076°42'4 6.0
2018-May-18 22:25N 34°55' W 076°39'1 0.0
2018-May-16 22:18N 34°56' W 076°39'2 6.6
2018-May-16 21:59N 34°54' W 076°40'2 5.0
2018-May-16 21:30N 34°52' W 076°41'3 5.5
2018-May-16 21:00N 34°49' W 076°41'3 5.6
2018-May-16 20:30N 34°46' W 076°41'3 6.0
2018-May-16 20:01N 34°44' W 076°42'0 0.4
2018-May-16 19:30N 34°43' W 076°42'0 0.0
2018-May-16 19:00N 34°43' W 076°42'0 0.0
2018-May-16 18:30N 34°43' W 076°42'0 0.0
2018-May-16 18:00N 34°43' W 076°42'0 0.0
2018-May-16 17:30N 34°43' W 076°42'0 0.0
2018-May-16 17:00N 34°43' W 076°42'0 0.0
2018-May-16 16:30N 34°43' W 076°42'0 0.0
2018-May-16 16:00N 34°43' W 076°42'0 0.6
2018-May-16 15:30N 34°43' W 076°42'1 1.1
2018-May-16 15:00N 34°43' W 076°42'0 0.0
2018-May-16 14:30N 34°43' W 076°42'0 0.0
2018-May-16 14:00N 34°43' W 076°42'0 0.0
2018-May-16 13:30N 34°43' W 076°42'1 1.0
2018-May-16 13:01N 34°43' W 076°42'0 0.1
2018-May-16 12:30N 34°43' W 076°42'3 5.1
2018-May-16 12:00N 34°46' W 076°41'3 5.6
2018-May-16 11:30N 34°49' W 076°41'3 6.0
2018-May-16 11:00N 34°52' W 076°41'3 5.6
2018-May-16 10:30N 34°54' W 076°40'3 5.7
2018-May-16 10:00N 34°57' W 076°40'2 0.2
2018-May-15 21:49N 34°59' W 076°41'2 7.0
2018-May-15 21:28N 34°57' W 076°40'3 5.9
2018-May-15 21:00N 34°54' W 076°41'3 5.2
2018-May-15 20:29N 34°51' W 076°41'3 5.5
2018-May-15 20:00N 34°49' W 076°41'3 5.6
2018-May-15 19:30N 34°46' W 076°41'3 5.4
2018-May-15 19:00N 34°43' W 076°42'0 0.2
2018-May-15 18:30N 34°43' W 076°42'0 0.0
2018-May-15 18:00N 34°43' W 076°42'0 0.0
2018-May-15 17:30N 34°43' W 076°42'0 0.0
2018-May-15 17:00N 34°43' W 076°42'0 0.0
2018-May-15 16:30N 34°43' W 076°42'0 0.0
2018-May-15 16:00N 34°43' W 076°42'0 0.0
2018-May-15 15:30N 34°43' W 076°42'0 0.0
2018-May-15 15:00N 34°43' W 076°42'0 0.0
2018-May-15 14:30N 34°43' W 076°42'0 0.0
2018-May-15 14:00N 34°43' W 076°42'0 0.0
2018-May-15 13:30N 34°43' W 076°42'0 0.0
2018-May-15 13:00N 34°43' W 076°42'0 0.0
2018-May-15 12:30N 34°43' W 076°42'0 0.0
2018-May-15 11:59N 34°43' W 076°42'0 0.0
2018-May-15 11:30N 34°43' W 076°42'0 0.0
2018-May-15 11:00N 34°43' W 076°42'0 0.0
2018-May-15 10:30N 34°43' W 076°42'0 0.0
2018-May-15 10:00N 34°43' W 076°42'0 0.0
2018-May-15 09:30N 34°43' W 076°42'0 0.0
2018-May-15 09:00N 34°43' W 076°42'0 0.0
2018-May-15 08:30N 34°43' W 076°42'0 0.0
2018-May-15 08:00N 34°43' W 076°42'0 0.0
2018-May-15 07:30N 34°43' W 076°42'0 0.0
2018-May-15 07:00N 34°43' W 076°42'0 0.5
2018-May-15 06:30N 34°44' W 076°42'3 6.2
2018-May-15 06:00N 34°47' W 076°41'3 6.1
2018-May-15 05:30N 34°50' W 076°41'3 5.7
2018-May-15 05:00N 34°53' W 076°42'3 5.1
2018-May-15 04:22N 34°55' W 076°39'4 0.1
2018-May-13 22:41N 34°59' W 076°41'1 6.7
2018-May-13 22:30N 34°58' W 076°41'3 6.5
2018-May-13 21:58N 34°54' W 076°40'3 6.8
2018-May-13 21:30N 34°51' W 076°41'4 7.5
2018-May-13 21:00N 34°47' W 076°41'4 7.6
2018-May-13 20:30N 34°44' W 076°42'0 0.7
2018-May-13 20:00N 34°43' W 076°42'0 0.0
2018-May-13 19:30N 34°43' W 076°42'0 0.0
2018-May-13 19:00N 34°43' W 076°42'0 0.0
2018-May-13 18:30N 34°43' W 076°42'0 0.0
2018-May-13 18:00N 34°43' W 076°42'0 0.0
2018-May-13 17:30N 34°43' W 076°42'0 0.0
2018-May-13 17:00N 34°43' W 076°42'0 0.0
2018-May-13 16:30N 34°43' W 076°42'0 0.0
2018-May-13 16:00N 34°43' W 076°42'0 0.0
2018-May-13 15:30N 34°43' W 076°42'0 0.0
2018-May-13 14:58N 34°43' W 076°42'0 0.0
2018-May-13 14:29N 34°43' W 076°42'0 0.0
2018-May-13 13:59N 34°43' W 076°42'0 0.0
2018-May-13 13:29N 34°43' W 076°42'0 0.1
2018-May-13 13:00N 34°43' W 076°42'3 5.3
2018-May-13 12:30N 34°46' W 076°41'3 5.5
2018-May-13 12:00N 34°49' W 076°41'2 4.1
2018-May-13 11:30N 34°51' W 076°41'2 4.1
2018-May-13 11:00N 34°53' W 076°42'4 4.4
2018-May-13 10:09N 34°56' W 076°39'24 2.7
2018-May-13 01:31N 35°19' W 076°37'0 7.8
2018-May-13 01:30N 35°19' W 076°37'21 6.0
2018-May-12 21:57N 34°58' W 076°41'3 7.4
2018-May-12 21:30N 34°56' W 076°39'4 7.4
2018-May-12 21:00N 34°52' W 076°42'4 7.7
2018-May-12 20:30N 34°48' W 076°41'4 7.7
2018-May-12 20:00N 34°45' W 076°41'2 3.1
2018-May-12 19:30N 34°43' W 076°42'0 0.0
2018-May-12 19:00N 34°43' W 076°42'0 0.0
2018-May-12 18:30N 34°43' W 076°42'0 0.0
2018-May-12 18:00N 34°43' W 076°42'0 0.0
2018-May-12 17:30N 34°43' W 076°42'0 0.0
2018-May-12 17:00N 34°43' W 076°42'0 0.0
2018-May-12 16:30N 34°43' W 076°42'0 0.0
2018-May-12 16:00N 34°43' W 076°42'0 0.0
2018-May-12 15:30N 34°43' W 076°42'0 0.0
2018-May-12 15:00N 34°43' W 076°42'0 0.0
2018-May-12 14:30N 34°43' W 076°42'0 0.0
2018-May-12 14:00N 34°43' W 076°42'0 0.0
2018-May-12 13:30N 34°43' W 076°42'0 0.0
2018-May-12 13:00N 34°43' W 076°42'0 0.0
2018-May-12 12:30N 34°43' W 076°42'0 0.0
2018-May-12 12:00N 34°43' W 076°42'0 0.0
2018-May-12 11:30N 34°43' W 076°42'0 0.0
2018-May-12 10:59N 34°43' W 076°42'0 0.0
2018-May-12 10:30N 34°43' W 076°42'0 0.0
2018-May-12 09:58N 34°43' W 076°42'0 0.0
2018-May-12 09:30N 34°43' W 076°42'0 0.0
2018-May-12 09:00N 34°43' W 076°42'0 0.5
2018-May-12 08:30N 34°44' W 076°42'3 5.1
2018-May-12 08:00N 34°46' W 076°41'3 6.0
2018-May-12 07:30N 34°49' W 076°41'3 6.4
2018-May-12 07:00N 34°52' W 076°42'3 6.1
2018-May-12 06:27N 34°55' W 076°40'4 6.2
2018-May-12 05:51N 34°59' W 076°42'7 7.0
2018-May-12 04:52N 35°03' W 076°35'3 7.0
2018-May-12 04:28N 35°05' W 076°33'5 7.1
2018-May-12 03:49N 35°09' W 076°30'2 7.1
2018-May-12 03:30N 35°10' W 076°32'14 1.4
2018-May-11 17:46N 34°58' W 076°41'2 6.7
2018-May-11 17:30N 34°57' W 076°40'3 5.5
2018-May-11 17:00N 34°54' W 076°41'2 4.9
2018-May-11 16:30N 34°52' W 076°41'3 5.4
2018-May-11 16:00N 34°49' W 076°41'3 5.6
2018-May-11 15:31N 34°46' W 076°41'3 5.7
2018-May-11 15:00N 34°44' W 076°42'0 0.4
2018-May-11 14:30N 34°43' W 076°42'0 0.0
2018-May-11 14:00N 34°43' W 076°42'0 0.0
2018-May-11 13:30N 34°43' W 076°42'0 0.0
2018-May-11 13:00N 34°43' W 076°42'0 0.0
2018-May-11 12:30N 34°43' W 076°42'0 0.0
2018-May-11 12:00N 34°43' W 076°42'0 0.0
2018-May-11 11:30N 34°43' W 076°42'0 0.0
2018-May-11 11:00N 34°43' W 076°42'0 0.0
2018-May-11 10:30N 34°43' W 076°42'0 0.0
2018-May-11 10:00N 34°43' W 076°42'0 0.0
2018-May-11 09:30N 34°43' W 076°42'0 0.0
2018-May-11 09:00N 34°43' W 076°42'0 0.0
2018-May-11 08:30N 34°43' W 076°42'0 0.0
2018-May-11 08:00N 34°43' W 076°42'0 0.0
2018-May-11 07:30N 34°43' W 076°42'0 0.0
2018-May-11 07:00N 34°43' W 076°42'0 0.0
2018-May-11 06:30N 34°43' W 076°42'0 0.0
2018-May-11 06:00N 34°43' W 076°42'0 0.0
2018-May-11 05:30N 34°43' W 076°42'0 0.0
2018-May-11 05:00N 34°43' W 076°42'0 0.0
2018-May-11 04:30N 34°43' W 076°42'0 0.0
2018-May-11 04:00N 34°43' W 076°42'0 0.0
2018-May-11 03:30N 34°43' W 076°42'0 0.0
2018-May-11 03:00N 34°43' W 076°42'0 0.0
2018-May-11 02:30N 34°43' W 076°42'0 0.0
2018-May-11 02:00N 34°43' W 076°42'0 0.0
2018-May-11 01:30N 34°43' W 076°42'0 0.0
2018-May-11 01:00N 34°43' W 076°42'0 0.0
2018-May-11 00:30N 34°43' W 076°42'0 0.0
2018-May-11 00:00N 34°43' W 076°42'0 0.0
2018-May-10 23:29N 34°43' W 076°42'0 0.0
2018-May-10 23:00N 34°43' W 076°42'0 0.0
2018-May-10 22:30N 34°43' W 076°42'0 0.0
2018-May-10 22:00N 34°43' W 076°42'0 0.0
2018-May-10 21:30N 34°43' W 076°42'0 0.0
2018-May-10 21:00N 34°43' W 076°42'0 0.0
2018-May-10 20:30N 34°43' W 076°42'0 0.2
2018-May-10 20:00N 34°43' W 076°42'1 1.4
2018-May-10 19:30N 34°44' W 076°41'2 4.9
2018-May-10 19:00N 34°46' W 076°41'3 5.4
2018-May-10 18:30N 34°49' W 076°41'3 5.8
2018-May-10 18:00N 34°52' W 076°41'4 5.6
2018-May-10 17:23N 34°55' W 076°40'2 5.8
2018-May-10 16:59N 34°57' W 076°41'  
Track history (hours):
 
Tides and Currents Weather Stations Pressure Air Temp Water Temp Dewpoint Dewpoint Depression Visibility Wind Speed Wind Dir Waves Ship Positions

Pamlico

Owner: PCS Phosphate, AURORA, NC. More information available from US FCC via Universal Licensing System and Coast Guard Vessel Documentation Center.

Last reported at 2018-May-19 03:54 UTC. Time now 2018-May-23 18:37 UTC.
Position N 34°57' W 076°41'.

Length 30 m; draft 2 m.

Type: Tug. MMSI: 367361220.

Date/timePositionNaut miles runAvg speedWind from/ knotsBaromVisibWave heightAir tempDewpointWater temp
2018-May-19 03:54N 34°57' W 076°41'3 7.0
2018-May-19 03:30N 34°55' W 076°40'4 7.5
2018-May-19 03:00N 34°51' W 076°41'4 8.3
2018-May-19 02:30N 34°47' W 076°41'4 7.8
2018-May-19 02:00N 34°43' W 076°42'0 0.2
2018-May-19 01:30N 34°43' W 076°42'0 0.0
2018-May-19 01:00N 34°43' W 076°42'2 4.6
2018-May-19 00:31N 34°45' W 076°40'1 2.0
2018-May-19 00:00N 34°46' W 076°41'3 5.7
2018-May-18 23:30N 34°49' W 076°41'3 6.4
2018-May-18 23:00N 34°52' W 076°42'4 6.0
2018-May-18 22:25N 34°55' W 076°39'1 0.0
2018-May-16 22:18N 34°56' W 076°39'2 6.6
2018-May-16 21:59N 34°54' W 076°40'2 5.0
2018-May-16 21:30N 34°52' W 076°41'3 5.5
2018-May-16 21:00N 34°49' W 076°41'3 5.6
2018-May-16 20:30N 34°46' W 076°41'3 6.0
2018-May-16 20:01N 34°44' W 076°42'0 0.4
2018-May-16 19:30N 34°43' W 076°42'0 0.0
2018-May-16 19:00N 34°43' W 076°42'0 0.0
2018-May-16 18:30N 34°43' W 076°42'0 0.0
2018-May-16 18:00N 34°43' W 076°42'0 0.0
2018-May-16 17:30N 34°43' W 076°42'0 0.0
2018-May-16 17:00N 34°43' W 076°42'0 0.0
2018-May-16 16:30N 34°43' W 076°42'0 0.0
2018-May-16 16:00N 34°43' W 076°42'0 0.6
2018-May-16 15:30N 34°43' W 076°42'1 1.1
2018-May-16 15:00N 34°43' W 076°42'0 0.0
2018-May-16 14:30N 34°43' W 076°42'0 0.0
2018-May-16 14:00N 34°43' W 076°42'0 0.0
2018-May-16 13:30N 34°43' W 076°42'1 1.0
2018-May-16 13:01N 34°43' W 076°42'0 0.1
2018-May-16 12:30N 34°43' W 076°42'3 5.1
2018-May-16 12:00N 34°46' W 076°41'3 5.6
2018-May-16 11:30N 34°49' W 076°41'3 6.0
2018-May-16 11:00N 34°52' W 076°41'3 5.6
2018-May-16 10:30N 34°54' W 076°40'3 5.7
2018-May-16 10:00N 34°57' W 076°40'2 0.2
2018-May-15 21:49N 34°59' W 076°41'2 7.0
2018-May-15 21:28N 34°57' W 076°40'3 5.9
2018-May-15 21:00N 34°54' W 076°41'3 5.2
2018-May-15 20:29N 34°51' W 076°41'3 5.5
2018-May-15 20:00N 34°49' W 076°41'3 5.6
2018-May-15 19:30N 34°46' W 076°41'3 5.4
2018-May-15 19:00N 34°43' W 076°42'0 0.2
2018-May-15 18:30N 34°43' W 076°42'0 0.0
2018-May-15 18:00N 34°43' W 076°42'0 0.0
2018-May-15 17:30N 34°43' W 076°42'0 0.0
2018-May-15 17:00N 34°43' W 076°42'0 0.0
2018-May-15 16:30N 34°43' W 076°42'0 0.0
2018-May-15 16:00N 34°43' W 076°42'0 0.0
2018-May-15 15:30N 34°43' W 076°42'0 0.0
2018-May-15 15:00N 34°43' W 076°42'0 0.0
2018-May-15 14:30N 34°43' W 076°42'0 0.0
2018-May-15 14:00N 34°43' W 076°42'0 0.0
2018-May-15 13:30N 34°43' W 076°42'0 0.0
2018-May-15 13:00N 34°43' W 076°42'0 0.0
2018-May-15 12:30N 34°43' W 076°42'0 0.0
2018-May-15 11:59N 34°43' W 076°42'0 0.0
2018-May-15 11:30N 34°43' W 076°42'0 0.0
2018-May-15 11:00N 34°43' W 076°42'0 0.0
2018-May-15 10:30N 34°43' W 076°42'0 0.0
2018-May-15 10:00N 34°43' W 076°42'0 0.0
2018-May-15 09:30N 34°43' W 076°42'0 0.0
2018-May-15 09:00N 34°43' W 076°42'0 0.0
2018-May-15 08:30N 34°43' W 076°42'0 0.0
2018-May-15 08:00N 34°43' W 076°42'0 0.0
2018-May-15 07:30N 34°43' W 076°42'0 0.0
2018-May-15 07:00N 34°43' W 076°42'0 0.5
2018-May-15 06:30N 34°44' W 076°42'3 6.2
2018-May-15 06:00N 34°47' W 076°41'3 6.1
2018-May-15 05:30N 34°50' W 076°41'3 5.7
2018-May-15 05:00N 34°53' W 076°42'3 5.1
2018-May-15 04:22N 34°55' W 076°39'4 0.1
2018-May-13 22:41N 34°59' W 076°41'1 6.7
2018-May-13 22:30N 34°58' W 076°41'3 6.5
2018-May-13 21:58N 34°54' W 076°40'3 6.8
2018-May-13 21:30N 34°51' W 076°41'4 7.5
2018-May-13 21:00N 34°47' W 076°41'4 7.6
2018-May-13 20:30N 34°44' W 076°42'0 0.7
2018-May-13 20:00N 34°43' W 076°42'0 0.0
2018-May-13 19:30N 34°43' W 076°42'0 0.0
2018-May-13 19:00N 34°43' W 076°42'0 0.0
2018-May-13 18:30N 34°43' W 076°42'0 0.0
2018-May-13 18:00N 34°43' W 076°42'0 0.0
2018-May-13 17:30N 34°43' W 076°42'0 0.0
2018-May-13 17:00N 34°43' W 076°42'0 0.0
2018-May-13 16:30N 34°43' W 076°42'0 0.0
2018-May-13 16:00N 34°43' W 076°42'0 0.0
2018-May-13 15:30N 34°43' W 076°42'0 0.0
2018-May-13 14:58N 34°43' W 076°42'0 0.0
2018-May-13 14:29N 34°43' W 076°42'0 0.0
2018-May-13 13:59N 34°43' W 076°42'0 0.0
2018-May-13 13:29N 34°43' W 076°42'0 0.1
2018-May-13 13:00N 34°43' W 076°42'3 5.3
2018-May-13 12:30N 34°46' W 076°41'3 5.5
2018-May-13 12:00N 34°49' W 076°41'2 4.1
2018-May-13 11:30N 34°51' W 076°41'2 4.1
2018-May-13 11:00N 34°53' W 076°42'4 4.4
2018-May-13 10:09N 34°56' W 076°39'24 2.7
2018-May-13 01:31N 35°19' W 076°37'0 7.8
2018-May-13 01:30N 35°19' W 076°37'21 6.0
2018-May-12 21:57N 34°58' W 076°41'3 7.4
2018-May-12 21:30N 34°56' W 076°39'4 7.4
2018-May-12 21:00N 34°52' W 076°42'4 7.7
2018-May-12 20:30N 34°48' W 076°41'4 7.7
2018-May-12 20:00N 34°45' W 076°41'2 3.1
2018-May-12 19:30N 34°43' W 076°42'0 0.0
2018-May-12 19:00N 34°43' W 076°42'0 0.0
2018-May-12 18:30N 34°43' W 076°42'0 0.0
2018-May-12 18:00N 34°43' W 076°42'0 0.0
2018-May-12 17:30N 34°43' W 076°42'0 0.0
2018-May-12 17:00N 34°43' W 076°42'0 0.0
2018-May-12 16:30N 34°43' W 076°42'0 0.0
2018-May-12 16:00N 34°43' W 076°42'0 0.0
2018-May-12 15:30N 34°43' W 076°42'0 0.0
2018-May-12 15:00N 34°43' W 076°42'0 0.0
2018-May-12 14:30N 34°43' W 076°42'0 0.0
2018-May-12 14:00N 34°43' W 076°42'0 0.0
2018-May-12 13:30N 34°43' W 076°42'0 0.0
2018-May-12 13:00N 34°43' W 076°42'0 0.0
2018-May-12 12:30N 34°43' W 076°42'0 0.0
2018-May-12 12:00N 34°43' W 076°42'0 0.0
2018-May-12 11:30N 34°43' W 076°42'0 0.0
2018-May-12 10:59N 34°43' W 076°42'0 0.0
2018-May-12 10:30N 34°43' W 076°42'0 0.0
2018-May-12 09:58N 34°43' W 076°42'0 0.0
2018-May-12 09:30N 34°43' W 076°42'0 0.0
2018-May-12 09:00N 34°43' W 076°42'0 0.5
2018-May-12 08:30N 34°44' W 076°42'3 5.1
2018-May-12 08:00N 34°46' W 076°41'3 6.0
2018-May-12 07:30N 34°49' W 076°41'3 6.4
2018-May-12 07:00N 34°52' W 076°42'3 6.1
2018-May-12 06:27N 34°55' W 076°40'4 6.2
2018-May-12 05:51N 34°59' W 076°42'7 7.0
2018-May-12 04:52N 35°03' W 076°35'3 7.0
2018-May-12 04:28N 35°05' W 076°33'5 7.1
2018-May-12 03:49N 35°09' W 076°30'2 7.1
2018-May-12 03:30N 35°10' W 076°32'14 1.4
2018-May-11 17:46N 34°58' W 076°41'2 6.7
2018-May-11 17:30N 34°57' W 076°40'3 5.5
2018-May-11 17:00N 34°54' W 076°41'2 4.9
2018-May-11 16:30N 34°52' W 076°41'3 5.4
2018-May-11 16:00N 34°49' W 076°41'3 5.6
2018-May-11 15:31N 34°46' W 076°41'3 5.7
2018-May-11 15:00N 34°44' W 076°42'0 0.4
2018-May-11 14:30N 34°43' W 076°42'0 0.0
2018-May-11 14:00N 34°43' W 076°42'0 0.0
2018-May-11 13:30N 34°43' W 076°42'0 0.0
2018-May-11 13:00N 34°43' W 076°42'0 0.0
2018-May-11 12:30N 34°43' W 076°42'0 0.0
2018-May-11 12:00N 34°43' W 076°42'0 0.0
2018-May-11 11:30N 34°43' W 076°42'0 0.0
2018-May-11 11:00N 34°43' W 076°42'0 0.0
2018-May-11 10:30N 34°43' W 076°42'0 0.0
2018-May-11 10:00N 34°43' W 076°42'0 0.0
2018-May-11 09:30N 34°43' W 076°42'0 0.0
2018-May-11 09:00N 34°43' W 076°42'0 0.0
2018-May-11 08:30N 34°43' W 076°42'0 0.0
2018-May-11 08:00N 34°43' W 076°42'0 0.0
2018-May-11 07:30N 34°43' W 076°42'0 0.0
2018-May-11 07:00N 34°43' W 076°42'0 0.0
2018-May-11 06:30N 34°43' W 076°42'0 0.0
2018-May-11 06:00N 34°43' W 076°42'0 0.0
2018-May-11 05:30N 34°43' W 076°42'0 0.0
2018-May-11 05:00N 34°43' W 076°42'0 0.0
2018-May-11 04:30N 34°43' W 076°42'0 0.0
2018-May-11 04:00N 34°43' W 076°42'0 0.0
2018-May-11 03:30N 34°43' W 076°42'0 0.0
2018-May-11 03:00N 34°43' W 076°42'0 0.0
2018-May-11 02:30N 34°43' W 076°42'0 0.0
2018-May-11 02:00N 34°43' W 076°42'0 0.0
2018-May-11 01:30N 34°43' W 076°42'0 0.0
2018-May-11 01:00N 34°43' W 076°42'0 0.0
2018-May-11 00:30N 34°43' W 076°42'0 0.0
2018-May-11 00:00N 34°43' W 076°42'0 0.0
2018-May-10 23:29N 34°43' W 076°42'0 0.0
2018-May-10 23:00N 34°43' W 076°42'0 0.0
2018-May-10 22:30N 34°43' W 076°42'0 0.0
2018-May-10 22:00N 34°43' W 076°42'0 0.0
2018-May-10 21:30N 34°43' W 076°42'0 0.0
2018-May-10 21:00N 34°43' W 076°42'0 0.0
2018-May-10 20:30N 34°43' W 076°42'0 0.2
2018-May-10 20:00N 34°43' W 076°42'1 1.4
2018-May-10 19:30N 34°44' W 076°41'2 4.9
2018-May-10 19:00N 34°46' W 076°41'3 5.4
2018-May-10 18:30N 34°49' W 076°41'3 5.8
2018-May-10 18:00N 34°52' W 076°41'4 5.6
2018-May-10 17:23N 34°55' W 076°40'2 5.8
2018-May-10 16:59N 34°57' W 076°41'  

Dump ship's entire track history